Latest Weather Observations for Stawell

IDV60801

Issued at 10:32 am EST Tuesday 26 July 2016 (issued every 30 minutes, with the page automatically refreshed every 10 minutes)

About weather observations | Map of weather stations | Latest weather observations for VIC | Other Formats
Station Details ID: 079105 Name: STAWELL AERODROME Lat: -37.07 Lon: 142.74 Height: 235.36 m
Data from the previous 72 hours. | See also: Recent months at Stawell
Date/Time
EST
Temp
°C
App
Temp
°C
Dew
Point
°C
Rel
Hum
%
Delta-T
°C
Wind Press
QNH
hPa
Press
MSL
hPa
Rain since
9am
mm
Dir  Spd
km/h
Gust
km/h
Spd
kts
Gust
kts
26/10:30am 4.7 -0.7 4.6 99 0.0 N 22 30 12 16 1012.7 - 0.0
26/10:00am 4.5 0.4 4.4 99 0.0 N 15 19 8 10 1012.8 - 0.0
26/09:30am 4.1 0.3 4.0 99 0.0 N 13 19 7 10 1012.4 - 0.0
26/09:00am 3.9 0.1 3.8 99 0.0 NNW 13 19 7 10 1012.5 1013.8 6.2
26/08:30am 3.7 -0.2 3.6 99 0.0 N 13 19 7 10 1012.1 - 6.2
26/08:00am 3.4 -0.9 3.3 99 0.0 NNW 15 19 8 10 1012.1 - 6.2
26/07:30am 3.5 -0.8 3.4 99 0.0 NNW 15 22 8 12 1011.7 - 6.2
26/07:00am 3.9 -0.4 3.2 95 0.3 NNW 15 20 8 11 1011.5 - 6.2
26/06:30am 4.3 0.8 3.6 95 0.3 NNW 11 17 6 9 1011.0 - 6.2
26/06:00am 4.6 0.0 3.6 93 0.4 NNW 17 22 9 12 1010.8 1012.0 6.2
26/05:30am 4.9 1.4 3.4 90 0.6 N 11 17 6 9 1010.6 - 6.2
26/05:00am 5.2 2.0 3.2 87 0.8 NNW 9 17 5 9 1010.4 - 6.2
26/04:30am 4.8 1.3 3.3 90 0.6 NE 11 19 6 10 1010.2 - 6.2
26/04:00am 4.6 0.6 2.6 87 0.8 NNE 13 20 7 11 1010.3 - 6.2
26/03:30am 5.5 1.1 2.7 82 1.2 W 15 28 8 15 1009.9 - 6.2
26/03:00am 5.9 0.7 2.2 77 1.5 W 19 28 10 15 1010.1 1011.3 6.2
26/02:30am 5.9 1.0 2.2 77 1.5 W 17 33 9 18 1010.3 - 6.2
26/02:00am 6.3 1.0 2.0 74 1.8 WNW 19 35 10 19 1010.3 - 6.2
26/01:30am 5.8 2.2 2.8 81 1.3 WNW 11 17 6 9 1010.3 - 6.2
26/01:00am 5.9 0.5 2.7 80 1.3 NW 20 30 11 16 1010.0 - 6.2
26/12:30am 6.1 1.2 2.2 76 1.6 WNW 17 24 9 13 1010.0 - 6.2
26/12:00am 6.2 1.3 1.9 74 1.8 WNW 17 26 9 14 1009.9 1011.1 6.2
 
Date/Time
EST
Temp
°C
App
Temp
°C
Dew
Point
°C
Rel
Hum
%
Delta-T
°C
Wind Press
QNH
hPa
Press
MSL
hPa
Rain since
9am
mm
Dir  Spd
km/h
Gust
km/h
Spd
kts
Gust
kts
25/11:30pm 6.5 1.6 1.8 72 1.9 WNW 17 30 9 16 1009.7 - 6.2
25/11:00pm 6.2 0.9 1.7 73 1.8 WNW 19 33 10 18 1009.4 - 6.2
25/10:30pm 6.2 1.3 1.7 73 1.8 W 17 28 9 15 1009.2 - 6.2
25/10:00pm 6.6 0.7 1.9 72 1.9 W 22 37 12 20 1009.2 - 6.2
25/09:44pm 6.6 -0.4 1.9 72 1.9 W 28 46 15 25 1009.0 - 6.2
25/09:30pm 7.5 2.0 0.5 61 2.8 WNW 19 30 10 16 1008.5 - 6.2
25/09:00pm 7.7 2.3 1.5 65 2.6 W 19 39 10 21 1008.3 1009.6 6.2
25/08:30pm 8.0 2.8 2.3 67 2.4 W 19 37 10 20 1007.8 - 6.2
25/08:00pm 8.4 2.7 2.6 67 2.5 W 22 37 12 20 1007.3 - 6.2
25/07:30pm 8.6 2.5 2.8 67 2.5 WNW 24 39 13 21 1006.5 - 6.2
25/07:09pm 8.8 2.0 3.0 67 2.5 WNW 28 52 15 28 1006.1 - 6.2
25/07:00pm 8.7 2.3 3.3 69 2.3 WNW 26 56 14 30 1005.9 - 6.2
25/06:49pm 8.8 2.1 3.6 70 2.3 WNW 28 50 15 27 1005.6 - 6.2
25/06:30pm 8.7 2.1 4.1 73 2.0 WNW 28 44 15 24 1005.5 - 6.2
25/06:00pm 8.2 3.3 5.3 82 1.3 WNW 20 37 11 20 1005.1 1006.3 6.2
25/05:30pm 7.9 4.4 7.0 94 0.4 W 15 28 8 15 1005.5 - 6.2
25/05:00pm 8.7 3.0 8.3 97 0.2 WNW 28 50 15 27 1004.4 - 5.6
25/04:59pm 8.7 3.0 8.3 97 0.2 WNW 28 50 15 27 1004.3 - 5.6
25/04:30pm 9.1 2.6 8.3 95 0.4 NNW 32 46 17 25 1003.3 - 2.8
25/04:04pm 9.1 2.1 8.5 96 0.3 NNW 35 57 19 31 1003.3 - 1.6
25/04:00pm 9.1 2.4 8.3 95 0.4 NNW 33 48 18 26 1003.3 - 1.6
25/03:32pm 10.1 3.5 7.7 85 1.2 NNW 32 50 17 27 1003.0 - 0.0
25/03:30pm 10.0 3.4 7.8 86 1.1 NNW 32 48 17 26 1003.1 - 0.0
25/03:00pm 10.3 3.2 7.9 85 1.2 NNW 35 56 19 30 1003.7 1004.9 0.0
25/02:42pm 10.5 3.9 7.7 83 1.4 NNW 32 50 17 27 1004.1 - 0.0
25/02:30pm 10.2 4.0 7.8 85 1.2 NNW 30 43 16 23 1004.3 - 0.0
25/02:00pm 9.7 3.0 8.0 89 0.8 NNW 33 52 18 28 1005.4 - 0.0
25/01:38pm 10.3 3.7 7.9 85 1.2 NNW 32 50 17 27 1005.6 - 0.0
25/01:30pm 10.1 2.5 7.7 85 1.2 NNW 37 50 20 27 1005.7 - 0.0
25/01:05pm 10.5 4.3 7.9 84 1.3 NNW 30 50 16 27 1006.0 - 0.0
25/01:00pm 9.8 3.9 7.7 87 1.0 NNW 28 39 15 21 1006.3 - 0.0
25/12:30pm 9.8 3.9 7.4 85 1.2 NNW 28 44 15 24 1007.4 - 0.0
25/12:00pm 9.3 4.8 7.1 86 1.1 NNW 20 30 11 16 1008.2 1009.5 0.0
25/11:30am 9.0 3.2 6.3 83 1.3 NNW 26 35 14 19 1008.9 - 0.0
25/11:00am 9.4 3.9 5.9 79 1.6 N 24 30 13 16 1009.1 - 0.0
25/10:30am 9.0 4.9 6.1 82 1.3 NNW 17 26 9 14 1009.4 - 0.0
25/10:00am 9.4 5.7 6.5 82 1.4 N 15 22 8 12 1009.4 - 0.0
25/09:30am 8.8 4.4 5.0 77 1.7 N 17 26 9 14 1009.4 - 0.0
25/09:00am 8.9 5.4 5.6 80 1.5 NNW 13 19 7 10 1009.4 1010.6 2.2
25/08:30am 8.0 5.0 5.8 86 1.0 N 11 17 6 9 1009.5 - 2.2
25/08:00am 7.7 4.6 5.7 87 0.9 N 11 15 6 8 1009.1 - 2.2
25/07:30am 7.7 5.1 6.2 90 0.7 N 9 13 5 7 1009.0 - 2.2
25/07:00am 7.2 3.9 6.5 95 0.3 NNE 13 17 7 9 1008.4 - 2.2
25/06:30am 6.8 4.8 6.4 97 0.2 NW 6 7 3 4 1008.3 - 2.2
25/06:00am 6.6 4.0 6.3 98 0.1 NW 9 13 5 7 1007.8 1009.0 2.2
25/05:30am 6.4 3.8 6.0 97 0.2 WNW 9 13 5 7 1007.4 - 2.2
25/05:00am 6.3 3.0 6.2 99 0.0 WNW 13 17 7 9 1007.0 - 2.2
25/04:30am 5.7 1.9 5.6 99 0.0 NW 15 22 8 12 1006.7 - 2.2
25/04:00am 6.1 2.3 6.0 99 0.0 WNW 15 22 8 12 1006.4 - 2.0
25/03:30am 5.3 1.7 5.2 99 0.0 WNW 13 19 7 10 1006.0 - 2.0
25/03:00am 5.0 2.5 4.9 99 0.0 NNW 7 13 4 7 1006.2 1007.4 2.0
25/02:30am 4.9 2.6 4.8 99 0.0 NNE 6 9 3 5 1005.9 - 2.0
25/02:00am 5.1 1.1 5.0 99 0.0 NNE 15 19 8 10 1005.7 - 2.0
25/01:30am 4.9 2.0 4.8 99 0.0 NNE 9 13 5 7 1005.4 - 2.0
25/01:00am 4.7 1.8 4.6 99 0.0 NNE 9 13 5 7 1005.4 - 2.0
25/12:30am 4.7 2.4 4.6 99 0.0 NNE 6 9 3 5 1005.2 - 2.0
25/12:00am 5.3 2.1 5.2 99 0.0 NNE 11 13 6 7 1004.8 1006.0 2.0
 
Date/Time
EST
Temp
°C
App
Temp
°C
Dew
Point
°C
Rel
Hum
%
Delta-T
°C
Wind Press
QNH
hPa
Press
MSL
hPa
Rain since
9am
mm
Dir  Spd
km/h
Gust
km/h
Spd
kts
Gust
kts
24/11:30pm 5.4 3.0 5.3 99 0.0 NNE 7 11 4 6 1004.6 - 2.0
24/11:00pm 5.8 3.5 5.7 99 0.0 N 7 11 4 6 1004.6 - 2.0
24/10:30pm 6.0 2.2 5.9 99 0.0 NNW 15 19 8 10 1004.5 - 1.8
24/10:00pm 6.1 3.5 6.0 99 0.0 NNW 9 13 5 7 1004.4 - 1.8
24/09:30pm 6.0 2.6 5.7 98 0.1 NNW 13 22 7 12 1004.4 - 1.8
24/09:00pm 6.3 3.3 5.9 97 0.2 NNW 11 17 6 9 1004.4 1005.5 1.4
24/08:30pm 6.3 3.2 5.6 95 0.3 NNW 11 15 6 8 1004.3 - 1.4
24/08:00pm 6.2 3.1 5.5 95 0.3 N 11 17 6 9 1003.9 - 1.4
24/07:30pm 6.5 3.0 5.6 94 0.4 NNW 13 19 7 10 1004.1 - 1.4
24/07:00pm 6.6 2.5 6.0 96 0.3 NNW 17 24 9 13 1003.8 - 1.4
24/06:30pm 6.4 2.3 6.0 97 0.2 NNW 17 24 9 13 1003.5 - 1.4
24/06:00pm 6.8 2.0 5.6 92 0.5 NNW 20 28 11 15 1003.3 1004.5 1.2
24/05:30pm 7.2 0.9 5.5 89 0.8 NW 28 43 15 23 1002.9 - 1.2
24/05:00pm 7.6 1.8 6.1 90 0.7 NNW 26 39 14 21 1002.7 - 1.2
24/04:30pm 7.3 1.5 6.1 92 0.6 NW 26 41 14 22 1002.7 - 1.2
24/04:02pm 9.0 2.6 5.0 76 1.8 N 28 52 15 28 1002.4 - 0.4
24/04:00pm 9.6 3.5 4.8 72 2.2 N 26 44 14 24 1002.2 - 0.2
24/03:39pm 9.9 3.4 4.9 71 2.3 N 28 46 15 25 1002.4 - 0.2
24/03:30pm 10.0 4.5 5.8 75 2.0 N 24 35 13 19 1002.5 - 0.2
24/03:04pm 9.2 2.9 5.8 79 1.6 NNW 28 46 15 25 1002.9 - 0.2
24/03:00pm 9.4 2.6 5.2 75 1.9 NNW 30 46 16 25 1003.0 1004.2 0.2
24/02:55pm 9.8 3.4 5.2 73 2.1 N 28 46 15 25 1002.9 - 0.2
24/02:30pm 10.0 4.5 6.0 76 1.9 N 24 37 13 20 1003.2 - 0.2
24/02:00pm 9.7 4.2 6.1 78 1.7 N 24 35 13 19 1004.1 - 0.2
24/01:30pm 9.0 4.0 6.3 83 1.3 N 22 37 12 20 1004.7 - 0.2
24/01:00pm 8.2 3.8 6.5 89 0.8 N 19 33 10 18 1005.5 - 0.2
24/12:30pm 7.7 3.9 6.0 89 0.8 N 15 24 8 13 1006.2 - 0.2
24/12:00pm 7.5 2.7 5.6 88 0.9 N 20 32 11 17 1006.8 1008.0 0.0
24/11:30am 7.4 2.2 5.4 87 0.9 N 22 35 12 19 1007.6 - 0.0
24/11:00am 7.3 2.4 5.1 86 1.0 N 20 26 11 14 1008.1 - 0.0
24/10:30am 6.8 1.0 4.6 86 1.0 N 24 33 13 18 1008.5 - 0.0
24/10:00am 6.8 1.0 4.3 84 1.1 N 24 32 13 17 1008.5 - 0.0
24/09:30am 5.3 1.5 4.0 91 0.6 NNE 13 17 7 9 1008.9 - 0.0
24/09:00am 4.8 0.9 3.6 92 0.5 NNE 13 17 7 9 1009.2 1010.4 0.0
24/08:30am 4.4 1.7 3.5 94 0.4 N 7 11 4 6 1009.5 - 0.0
24/08:00am 4.1 0.6 3.4 95 0.3 N 11 17 6 9 1009.5 - 0.0
24/07:30am 3.8 -0.1 3.2 96 0.2 N 13 19 7 10 1009.3 - 0.0
24/07:00am 3.5 0.7 3.2 98 0.1 NE 7 11 4 6 1009.4 - 0.0
24/06:30am 3.3 0.1 3.0 98 0.1 NNE 9 13 5 7 1009.6 - 0.0
24/06:00am 3.3 -0.3 2.9 97 0.2 NNE 11 15 6 8 1009.5 1010.7 0.0
24/05:30am 3.7 0.5 3.3 97 0.2 N 9 13 5 7 1009.6 - 0.0
24/05:00am 3.9 0.8 3.6 98 0.1 N 9 11 5 6 1009.8 - 0.0
24/04:30am 3.7 0.2 3.6 99 0.0 NNE 11 15 6 8 1010.2 - 0.0
24/04:00am 3.5 0.4 3.4 99 0.0 NNE 9 13 5 7 1010.5 - 0.0
24/03:30am 2.8 -0.1 2.7 99 0.0 NE 7 9 4 5 1010.9 - 0.0
24/03:00am 2.4 -0.4 2.3 99 0.0 NE 6 6 3 3 1011.4 1012.6 0.0
24/02:30am 1.7 -1.4 1.6 99 0.0 NNE 7 9 4 5 1011.6 - 0.0
24/02:00am 2.3 -0.1 2.2 99 0.0 N 4 6 2 3 1011.7 - 0.0
24/01:30am 2.9 0.2 2.6 98 0.1 NNW 6 7 3 4 1011.7 - 0.0
24/01:00am 3.9 1.2 3.8 99 0.0 NNW 7 9 4 5 1011.8 - 0.0
24/12:30am 3.4 0.2 3.3 99 0.0 NNW 9 11 5 6 1012.0 - 0.0
24/12:00am 2.7 1.1 2.4 98 0.1 CALM 0 4 0 2 1012.2 1013.5 0.0
 
Date/Time
EST
Temp
°C
App
Temp
°C
Dew
Point
°C
Rel
Hum
%
Delta-T
°C
Wind Press
QNH
hPa
Press
MSL
hPa
Rain since
9am
mm
Dir  Spd
km/h
Gust
km/h
Spd
kts
Gust
kts
23/11:30pm 2.7 -0.1 2.3 97 0.2 NE 6 7 3 4 1012.3 - 0.0
23/11:00pm 2.9 1.2 2.0 94 0.4 CALM 0 6 0 3 1012.4 - 0.0
23/10:30pm 4.5 1.8 3.6 94 0.4 NNW 7 9 4 5 1012.3 - 0.0
23/10:00pm 4.1 2.2 2.9 92 0.5 NNE 2 7 1 4 1012.2 - 0.0
23/09:30pm 5.0 1.8 3.3 89 0.7 WNW 9 11 5 6 1012.4 - 0.0
23/09:00pm 4.8 2.1 3.5 91 0.5 WNW 7 9 4 5 1012.4 1013.7 0.0
23/08:30pm 5.6 2.8 3.4 86 0.9 NW 7 9 4 5 1012.5 - 0.0
23/08:00pm 6.2 4.1 3.7 84 1.1 W 4 7 2 4 1012.3 - 0.0
23/07:30pm 6.9 3.7 3.0 76 1.7 W 9 13 5 7 1012.3 - 0.0
23/07:00pm 7.2 3.5 2.3 71 2.1 W 11 15 6 8 1011.8 - 0.0
23/06:30pm 7.3 3.5 2.0 69 2.2 WNW 11 17 6 9 1011.4 - 0.0
23/06:00pm 7.2 3.4 1.9 69 2.2 WNW 11 15 6 8 1011.1 1012.3 0.0
23/05:30pm 7.5 3.6 0.9 63 2.7 WNW 11 15 6 8 1010.7 - 0.0
23/05:00pm 8.7 4.0 0.7 57 3.3 W 15 26 8 14 1010.4 - 0.0
23/04:30pm 9.2 4.0 -0.1 52 3.7 W 17 33 9 18 1010.2 - 0.0
23/04:00pm 9.2 3.7 1.9 60 3.1 WNW 20 32 11 17 1010.0 - 0.0
23/03:30pm 9.5 4.6 -0.7 49 4.1 W 15 24 8 13 1009.5 - 0.0
23/03:00pm 10.2 4.9 -0.3 48 4.3 W 17 30 9 16 1009.3 1010.5 0.0
23/02:30pm 9.4 2.2 -1.9 45 4.4 W 26 44 14 24 1009.0 - 0.0
23/02:00pm 9.5 3.7 0.1 52 3.8 W 20 35 11 19 1008.9 - 0.0
23/01:30pm 9.3 2.6 -1.1 48 4.1 W 24 43 13 23 1008.5 - 0.0
23/01:00pm 9.3 3.6 -0.6 50 3.9 WSW 19 28 10 15 1008.5 - 0.0
23/12:30pm 9.1 2.6 -2.2 45 4.3 WSW 22 35 12 19 1008.7 - 0.0
23/12:00pm 8.8 3.1 -0.5 52 3.7 WSW 19 28 10 15 1008.4 1009.7 0.0
23/11:30am 8.4 2.1 -1.1 51 3.7 W 22 41 12 22 1008.5 - 0.0
23/11:00am 8.1 1.5 -0.1 56 3.3 WSW 24 35 13 19 1008.3 - 0.0

Other Formats:

Comma delimited format used in spreadsheet applications
http://www.bom.gov.au/fwo/IDV60801/IDV60801.94836.axf

JavaScript Object Notation format (JSON) in row-major order
http://www.bom.gov.au/fwo/IDV60801/IDV60801.94836.json